sensor_id;sensor_type;location;lat;lon;timestamp;temperature;humidity
14006;DHT22;7078;51.542;7.314;2023-07-13T00:02:07;17.50;99.90
14006;DHT22;7078;51.542;7.314;2023-07-13T00:04:33;17.50;99.90
14006;DHT22;7078;51.542;7.314;2023-07-13T00:06:59;17.40;99.90
14006;DHT22;7078;51.542;7.314;2023-07-13T00:09:24;17.40;99.90
14006;DHT22;7078;51.542;7.314;2023-07-13T00:11:56;17.40;99.90
14006;DHT22;7078;51.542;7.314;2023-07-13T00:14:23;17.30;99.90
14006;DHT22;7078;51.542;7.314;2023-07-13T00:16:49;17.30;99.90
14006;DHT22;7078;51.542;7.314;2023-07-13T00:19:14;17.30;99.90
14006;DHT22;7078;51.542;7.314;2023-07-13T00:21:41;17.20;99.90
14006;DHT22;7078;51.542;7.314;2023-07-13T00:24:11;17.20;99.90
14006;DHT22;7078;51.542;7.314;2023-07-13T00:26:41;17.20;99.90
14006;DHT22;7078;51.542;7.314;2023-07-13T00:29:11;17.10;99.90
14006;DHT22;7078;51.542;7.314;2023-07-13T00:31:36;17.10;99.90
14006;DHT22;7078;51.542;7.314;2023-07-13T00:34:02;17.10;99.90
14006;DHT22;7078;51.542;7.314;2023-07-13T00:36:30;17.10;99.90
14006;DHT22;7078;51.542;7.314;2023-07-13T00:38:55;17.00;99.90
14006;DHT22;7078;51.542;7.314;2023-07-13T00:41:21;17.00;99.90
14006;DHT22;7078;51.542;7.314;2023-07-13T00:43:47;17.00;99.90
14006;DHT22;7078;51.542;7.314;2023-07-13T00:46:19;16.90;99.90
14006;DHT22;7078;51.542;7.314;2023-07-13T00:48:47;16.80;99.90
14006;DHT22;7078;51.542;7.314;2023-07-13T00:51:14;16.70;99.90
14006;DHT22;7078;51.542;7.314;2023-07-13T00:53:41;16.80;99.90
14006;DHT22;7078;51.542;7.314;2023-07-13T00:56:06;16.70;99.90
14006;DHT22;7078;51.542;7.314;2023-07-13T00:58:33;16.70;99.90
14006;DHT22;7078;51.542;7.314;2023-07-13T01:00:59;16.60;99.90
14006;DHT22;7078;51.542;7.314;2023-07-13T01:03:24;16.60;99.90
14006;DHT22;7078;51.542;7.314;2023-07-13T01:05:50;16.50;99.90
14006;DHT22;7078;51.542;7.314;2023-07-13T01:08:17;16.50;99.90
14006;DHT22;7078;51.542;7.314;2023-07-13T01:10:52;16.50;99.90
14006;DHT22;7078;51.542;7.314;2023-07-13T01:13:17;16.50;99.90
14006;DHT22;7078;51.542;7.314;2023-07-13T01:15:46;16.50;99.90
14006;DHT22;7078;51.542;7.314;2023-07-13T01:18:17;16.40;99.90
14006;DHT22;7078;51.542;7.314;2023-07-13T01:20:52;16.50;99.90
14006;DHT22;7078;51.542;7.314;2023-07-13T01:23:17;16.40;99.90
14006;DHT22;7078;51.542;7.314;2023-07-13T01:25:44;16.40;99.90
14006;DHT22;7078;51.542;7.314;2023-07-13T01:28:10;16.30;99.90
14006;DHT22;7078;51.542;7.314;2023-07-13T01:30:36;16.30;99.90
14006;DHT22;7078;51.542;7.314;2023-07-13T01:33:08;16.20;99.90
14006;DHT22;7078;51.542;7.314;2023-07-13T01:35:35;16.10;99.90
14006;DHT22;7078;51.542;7.314;2023-07-13T01:38:01;16.10;99.90
14006;DHT22;7078;51.542;7.314;2023-07-13T01:40:27;16.10;99.90
14006;DHT22;7078;51.542;7.314;2023-07-13T01:42:53;16.00;99.90
14006;DHT22;7078;51.542;7.314;2023-07-13T01:45:19;16.10;99.90
14006;DHT22;7078;51.542;7.314;2023-07-13T01:47:44;16.00;99.90
14006;DHT22;7078;51.542;7.314;2023-07-13T01:50:10;16.00;99.90
14006;DHT22;7078;51.542;7.314;2023-07-13T01:52:35;16.00;99.90
14006;DHT22;7078;51.542;7.314;2023-07-13T01:55:01;16.00;99.90
14006;DHT22;7078;51.542;7.314;2023-07-13T01:57:27;16.00;99.90
14006;DHT22;7078;51.542;7.314;2023-07-13T01:59:53;16.00;99.90
14006;DHT22;7078;51.542;7.314;2023-07-13T02:02:19;15.90;99.90
14006;DHT22;7078;51.542;7.314;2023-07-13T02:04:45;15.90;99.90
14006;DHT22;7078;51.542;7.314;2023-07-13T02:07:10;15.90;99.90
14006;DHT22;7078;51.542;7.314;2023-07-13T02:09:36;15.90;99.90
14006;DHT22;7078;51.542;7.314;2023-07-13T02:12:01;15.80;99.90
14006;DHT22;7078;51.542;7.314;2023-07-13T02:14:27;15.90;99.90
14006;DHT22;7078;51.542;7.314;2023-07-13T02:16:52;15.90;99.90
14006;DHT22;7078;51.542;7.314;2023-07-13T02:19:18;15.80;99.90
14006;DHT22;7078;51.542;7.314;2023-07-13T02:21:44;15.80;99.90
14006;DHT22;7078;51.542;7.314;2023-07-13T02:24:09;15.80;99.90
14006;DHT22;7078;51.542;7.314;2023-07-13T02:26:35;15.80;99.90
14006;DHT22;7078;51.542;7.314;2023-07-13T02:29:01;15.80;99.90
14006;DHT22;7078;51.542;7.314;2023-07-13T02:31:26;15.80;99.90
14006;DHT22;7078;51.542;7.314;2023-07-13T02:33:52;15.70;99.90
14006;DHT22;7078;51.542;7.314;2023-07-13T02:36:18;15.70;99.90
14006;DHT22;7078;51.542;7.314;2023-07-13T02:38:44;15.70;99.90
14006;DHT22;7078;51.542;7.314;2023-07-13T02:41:09;15.70;99.90
14006;DHT22;7078;51.542;7.314;2023-07-13T02:43:38;15.70;99.90
14006;DHT22;7078;51.542;7.314;2023-07-13T02:46:03;15.70;99.90
14006;DHT22;7078;51.542;7.314;2023-07-13T02:48:33;15.80;99.90
14006;DHT22;7078;51.542;7.314;2023-07-13T02:50:58;15.90;99.90
14006;DHT22;7078;51.542;7.314;2023-07-13T02:53:24;15.90;99.90
14006;DHT22;7078;51.542;7.314;2023-07-13T02:55:50;15.90;99.90
14006;DHT22;7078;51.542;7.314;2023-07-13T02:58:16;15.90;99.90
14006;DHT22;7078;51.542;7.314;2023-07-13T03:00:45;15.80;99.90
14006;DHT22;7078;51.542;7.314;2023-07-13T03:03:12;15.80;99.90
14006;DHT22;7078;51.542;7.314;2023-07-13T03:05:41;15.80;99.90
14006;DHT22;7078;51.542;7.314;2023-07-13T03:08:08;15.80;99.90
14006;DHT22;7078;51.542;7.314;2023-07-13T03:10:33;15.80;99.90
14006;DHT22;7078;51.542;7.314;2023-07-13T03:12:59;15.80;99.90
14006;DHT22;7078;51.542;7.314;2023-07-13T03:15:25;15.70;99.90
14006;DHT22;7078;51.542;7.314;2023-07-13T03:17:50;15.70;99.90
14006;DHT22;7078;51.542;7.314;2023-07-13T03:20:16;15.80;99.90
14006;DHT22;7078;51.542;7.314;2023-07-13T03:22:42;15.80;99.90
14006;DHT22;7078;51.542;7.314;2023-07-13T03:25:08;15.80;99.90
14006;DHT22;7078;51.542;7.314;2023-07-13T03:27:33;15.80;99.90
14006;DHT22;7078;51.542;7.314;2023-07-13T03:29:59;15.70;99.90
14006;DHT22;7078;51.542;7.314;2023-07-13T03:32:25;15.80;99.90
14006;DHT22;7078;51.542;7.314;2023-07-13T03:34:50;15.70;99.90
14006;DHT22;7078;51.542;7.314;2023-07-13T03:37:16;15.70;99.90
14006;DHT22;7078;51.542;7.314;2023-07-13T03:39:41;15.80;99.90
14006;DHT22;7078;51.542;7.314;2023-07-13T03:42:07;15.80;99.90
14006;DHT22;7078;51.542;7.314;2023-07-13T03:44:33;15.70;99.90
14006;DHT22;7078;51.542;7.314;2023-07-13T03:46:58;15.70;99.90
14006;DHT22;7078;51.542;7.314;2023-07-13T03:49:24;15.70;99.90
14006;DHT22;7078;51.542;7.314;2023-07-13T03:51:49;15.70;99.90
14006;DHT22;7078;51.542;7.314;2023-07-13T03:54:15;15.70;99.90
14006;DHT22;7078;51.542;7.314;2023-07-13T03:56:41;15.60;99.90
14006;DHT22;7078;51.542;7.314;2023-07-13T03:59:06;15.60;99.90
14006;DHT22;7078;51.542;7.314;2023-07-13T04:01:33;15.60;99.90
14006;DHT22;7078;51.542;7.314;2023-07-13T04:03:59;15.60;99.90
14006;DHT22;7078;51.542;7.314;2023-07-13T04:06:29;15.70;99.90
14006;DHT22;7078;51.542;7.314;2023-07-13T04:08:57;15.70;99.90
14006;DHT22;7078;51.542;7.314;2023-07-13T04:11:26;15.70;99.90
14006;DHT22;7078;51.542;7.314;2023-07-13T04:13:52;15.70;99.90
14006;DHT22;7078;51.542;7.314;2023-07-13T04:16:18;15.70;99.90
14006;DHT22;7078;51.542;7.314;2023-07-13T04:18:45;15.80;99.90
14006;DHT22;7078;51.542;7.314;2023-07-13T04:21:11;15.90;99.90
14006;DHT22;7078;51.542;7.314;2023-07-13T04:23:38;15.90;99.90
14006;DHT22;7078;51.542;7.314;2023-07-13T04:26:04;15.90;99.90
14006;DHT22;7078;51.542;7.314;2023-07-13T04:28:29;15.90;99.90
14006;DHT22;7078;51.542;7.314;2023-07-13T04:30:56;16.00;99.90
14006;DHT22;7078;51.542;7.314;2023-07-13T04:33:22;16.00;99.90
14006;DHT22;7078;51.542;7.314;2023-07-13T04:35:49;16.00;99.90
14006;DHT22;7078;51.542;7.314;2023-07-13T04:38:15;16.00;99.90
14006;DHT22;7078;51.542;7.314;2023-07-13T04:40:44;16.00;99.90
14006;DHT22;7078;51.542;7.314;2023-07-13T04:43:10;16.00;99.90
14006;DHT22;7078;51.542;7.314;2023-07-13T04:45:36;16.00;99.90
14006;DHT22;7078;51.542;7.314;2023-07-13T04:48:01;15.90;99.90
14006;DHT22;7078;51.542;7.314;2023-07-13T04:50:27;16.00;99.90
14006;DHT22;7078;51.542;7.314;2023-07-13T04:52:52;16.10;99.90
14006;DHT22;7078;51.542;7.314;2023-07-13T04:55:19;16.20;99.90
14006;DHT22;7078;51.542;7.314;2023-07-13T04:57:46;16.30;99.90
14006;DHT22;7078;51.542;7.314;2023-07-13T05:00:12;16.40;99.90
14006;DHT22;7078;51.542;7.314;2023-07-13T05:02:38;16.40;99.90
14006;DHT22;7078;51.542;7.314;2023-07-13T05:05:05;16.40;99.90
14006;DHT22;7078;51.542;7.314;2023-07-13T05:07:31;16.40;99.90
14006;DHT22;7078;51.542;7.314;2023-07-13T05:09:58;16.50;99.90
14006;DHT22;7078;51.542;7.314;2023-07-13T05:12:24;16.50;99.90
14006;DHT22;7078;51.542;7.314;2023-07-13T05:14:50;16.60;99.90
14006;DHT22;7078;51.542;7.314;2023-07-13T05:17:16;16.60;99.90
14006;DHT22;7078;51.542;7.314;2023-07-13T05:19:41;16.70;99.90
14006;DHT22;7078;51.542;7.314;2023-07-13T05:22:07;16.70;99.90
14006;DHT22;7078;51.542;7.314;2023-07-13T05:24:33;16.60;99.90
14006;DHT22;7078;51.542;7.314;2023-07-13T05:26:59;16.50;99.90
14006;DHT22;7078;51.542;7.314;2023-07-13T05:29:24;16.50;99.90
14006;DHT22;7078;51.542;7.314;2023-07-13T05:31:50;16.50;99.90
14006;DHT22;7078;51.542;7.314;2023-07-13T05:34:15;16.60;99.90
14006;DHT22;7078;51.542;7.314;2023-07-13T05:36:41;16.70;99.90
14006;DHT22;7078;51.542;7.314;2023-07-13T05:39:07;16.70;99.90
14006;DHT22;7078;51.542;7.314;2023-07-13T05:41:33;16.80;99.90
14006;DHT22;7078;51.542;7.314;2023-07-13T05:43:58;17.00;99.90
14006;DHT22;7078;51.542;7.314;2023-07-13T05:46:24;17.00;99.90
14006;DHT22;7078;51.542;7.314;2023-07-13T05:48:50;17.00;99.90
14006;DHT22;7078;51.542;7.314;2023-07-13T05:51:16;17.10;99.90
14006;DHT22;7078;51.542;7.314;2023-07-13T05:53:41;17.30;99.90
14006;DHT22;7078;51.542;7.314;2023-07-13T05:56:07;17.30;99.90
14006;DHT22;7078;51.542;7.314;2023-07-13T05:58:33;17.30;99.90
14006;DHT22;7078;51.542;7.314;2023-07-13T06:01:06;17.30;99.90
14006;DHT22;7078;51.542;7.314;2023-07-13T06:03:32;17.40;99.90
14006;DHT22;7078;51.542;7.314;2023-07-13T06:05:58;17.40;99.90
14006;DHT22;7078;51.542;7.314;2023-07-13T06:08:26;17.40;99.90
14006;DHT22;7078;51.542;7.314;2023-07-13T06:10:51;17.40;99.90
14006;DHT22;7078;51.542;7.314;2023-07-13T06:13:17;17.40;99.90
14006;DHT22;7078;51.542;7.314;2023-07-13T06:15:48;17.50;99.90
14006;DHT22;7078;51.542;7.314;2023-07-13T06:18:14;17.60;99.90
14006;DHT22;7078;51.542;7.314;2023-07-13T06:20:40;17.60;99.90
14006;DHT22;7078;51.542;7.314;2023-07-13T06:23:05;17.50;99.90
14006;DHT22;7078;51.542;7.314;2023-07-13T06:25:31;17.50;99.90
14006;DHT22;7078;51.542;7.314;2023-07-13T06:27:56;17.70;99.90
14006;DHT22;7078;51.542;7.314;2023-07-13T06:30:22;17.80;99.90
14006;DHT22;7078;51.542;7.314;2023-07-13T06:32:48;17.70;99.90
14006;DHT22;7078;51.542;7.314;2023-07-13T06:35:13;17.80;99.90
14006;DHT22;7078;51.542;7.314;2023-07-13T06:37:39;17.80;99.90
14006;DHT22;7078;51.542;7.314;2023-07-13T06:40:05;17.80;99.90
14006;DHT22;7078;51.542;7.314;2023-07-13T06:42:31;17.80;99.90
14006;DHT22;7078;51.542;7.314;2023-07-13T06:44:57;17.90;99.90
14006;DHT22;7078;51.542;7.314;2023-07-13T06:47:22;17.90;99.90
14006;DHT22;7078;51.542;7.314;2023-07-13T06:49:48;18.00;99.90
14006;DHT22;7078;51.542;7.314;2023-07-13T06:52:13;18.00;99.90
14006;DHT22;7078;51.542;7.314;2023-07-13T06:54:39;18.20;99.90
14006;DHT22;7078;51.542;7.314;2023-07-13T06:57:05;18.30;99.90
14006;DHT22;7078;51.542;7.314;2023-07-13T06:59:30;18.30;99.90
14006;DHT22;7078;51.542;7.314;2023-07-13T07:01:56;18.50;99.90
14006;DHT22;7078;51.542;7.314;2023-07-13T07:04:21;18.70;99.90
14006;DHT22;7078;51.542;7.314;2023-07-13T07:06:47;18.70;99.90
14006;DHT22;7078;51.542;7.314;2023-07-13T07:09:13;18.80;99.90
14006;DHT22;7078;51.542;7.314;2023-07-13T07:11:39;18.90;99.90
14006;DHT22;7078;51.542;7.314;2023-07-13T07:14:04;18.90;99.90
14006;DHT22;7078;51.542;7.314;2023-07-13T07:16:30;19.00;99.90
14006;DHT22;7078;51.542;7.314;2023-07-13T07:18:55;19.00;99.90
14006;DHT22;7078;51.542;7.314;2023-07-13T07:21:21;19.00;99.90
14006;DHT22;7078;51.542;7.314;2023-07-13T07:23:48;19.10;99.90
14006;DHT22;7078;51.542;7.314;2023-07-13T07:26:14;18.90;99.90
14006;DHT22;7078;51.542;7.314;2023-07-13T07:28:40;18.90;99.90
14006;DHT22;7078;51.542;7.314;2023-07-13T07:31:06;19.00;99.90
14006;DHT22;7078;51.542;7.314;2023-07-13T07:33:33;19.20;99.90
14006;DHT22;7078;51.542;7.314;2023-07-13T07:36:00;19.40;99.90
14006;DHT22;7078;51.542;7.314;2023-07-13T07:38:25;19.60;99.90
14006;DHT22;7078;51.542;7.314;2023-07-13T07:40:51;19.80;99.90
14006;DHT22;7078;51.542;7.314;2023-07-13T07:43:16;20.10;99.90
14006;DHT22;7078;51.542;7.314;2023-07-13T07:45:44;20.30;99.90
14006;DHT22;7078;51.542;7.314;2023-07-13T07:48:10;20.40;99.90
14006;DHT22;7078;51.542;7.314;2023-07-13T07:50:36;20.40;99.90
14006;DHT22;7078;51.542;7.314;2023-07-13T07:53:02;20.50;99.90
14006;DHT22;7078;51.542;7.314;2023-07-13T07:55:28;20.40;99.90
14006;DHT22;7078;51.542;7.314;2023-07-13T07:57:54;20.40;99.90
14006;DHT22;7078;51.542;7.314;2023-07-13T08:00:20;20.40;99.90
14006;DHT22;7078;51.542;7.314;2023-07-13T08:02:46;20.40;99.90
14006;DHT22;7078;51.542;7.314;2023-07-13T08:05:11;20.50;99.90
14006;DHT22;7078;51.542;7.314;2023-07-13T08:07:38;20.50;99.90
14006;DHT22;7078;51.542;7.314;2023-07-13T08:10:08;20.80;99.90
14006;DHT22;7078;51.542;7.314;2023-07-13T08:12:34;20.80;99.90
14006;DHT22;7078;51.542;7.314;2023-07-13T08:15:00;20.90;99.90
14006;DHT22;7078;51.542;7.314;2023-07-13T08:17:26;20.90;99.90
14006;DHT22;7078;51.542;7.314;2023-07-13T08:19:51;21.10;99.90
14006;DHT22;7078;51.542;7.314;2023-07-13T08:22:17;20.80;99.90
14006;DHT22;7078;51.542;7.314;2023-07-13T08:24:43;20.70;99.90
14006;DHT22;7078;51.542;7.314;2023-07-13T08:27:10;20.80;99.90
14006;DHT22;7078;51.542;7.314;2023-07-13T08:29:37;21.00;99.90
14006;DHT22;7078;51.542;7.314;2023-07-13T08:32:04;20.90;99.90
14006;DHT22;7078;51.542;7.314;2023-07-13T08:34:29;20.90;99.90
14006;DHT22;7078;51.542;7.314;2023-07-13T08:36:55;21.00;99.90
14006;DHT22;7078;51.542;7.314;2023-07-13T08:39:20;20.90;99.90
14006;DHT22;7078;51.542;7.314;2023-07-13T08:41:50;20.90;99.90
14006;DHT22;7078;51.542;7.314;2023-07-13T08:47:14;20.40;99.90
14006;DHT22;7078;51.542;7.314;2023-07-13T08:49:41;20.40;99.90
14006;DHT22;7078;51.542;7.314;2023-07-13T08:52:23;20.60;99.90
14006;DHT22;7078;51.542;7.314;2023-07-13T08:54:51;20.60;99.90
14006;DHT22;7078;51.542;7.314;2023-07-13T08:57:21;20.50;99.90
14006;DHT22;7078;51.542;7.314;2023-07-13T08:59:47;20.40;99.90
14006;DHT22;7078;51.542;7.314;2023-07-13T09:02:39;20.50;99.90
14006;DHT22;7078;51.542;7.314;2023-07-13T09:05:25;20.50;99.90
14006;DHT22;7078;51.542;7.314;2023-07-13T09:08:24;20.10;99.90
14006;DHT22;7078;51.542;7.314;2023-07-13T09:13:46;20.10;99.90
14006;DHT22;7078;51.542;7.314;2023-07-13T09:16:14;20.20;99.90
14006;DHT22;7078;51.542;7.314;2023-07-13T09:18:46;20.40;99.90
14006;DHT22;7078;51.542;7.314;2023-07-13T09:23:42;20.90;99.90
14006;DHT22;7078;51.542;7.314;2023-07-13T09:26:16;20.80;99.90
14006;DHT22;7078;51.542;7.314;2023-07-13T09:28:49;20.90;99.90
14006;DHT22;7078;51.542;7.314;2023-07-13T09:31:32;21.10;99.90
14006;DHT22;7078;51.542;7.314;2023-07-13T09:33:59;21.40;99.90
14006;DHT22;7078;51.542;7.314;2023-07-13T09:36:28;21.20;99.90
14006;DHT22;7078;51.542;7.314;2023-07-13T09:39:23;20.90;99.90
14006;DHT22;7078;51.542;7.314;2023-07-13T09:47:26;21.10;99.90
14006;DHT22;7078;51.542;7.314;2023-07-13T09:49:58;21.30;99.90
14006;DHT22;7078;51.542;7.314;2023-07-13T09:52:24;21.50;99.90
14006;DHT22;7078;51.542;7.314;2023-07-13T09:54:50;21.70;99.60
14006;DHT22;7078;51.542;7.314;2023-07-13T09:57:18;21.50;98.00
14006;DHT22;7078;51.542;7.314;2023-07-13T09:59:49;21.40;97.60
14006;DHT22;7078;51.542;7.314;2023-07-13T10:02:30;21.10;98.50
14006;DHT22;7078;51.542;7.314;2023-07-13T10:05:01;21.20;99.30
14006;DHT22;7078;51.542;7.314;2023-07-13T10:07:29;21.40;99.60
14006;DHT22;7078;51.542;7.314;2023-07-13T10:09:56;21.60;98.00
14006;DHT22;7078;51.542;7.314;2023-07-13T10:12:22;22.00;97.40
14006;DHT22;7078;51.542;7.314;2023-07-13T10:14:54;22.30;98.00
14006;DHT22;7078;51.542;7.314;2023-07-13T10:17:27;22.50;94.70
14006;DHT22;7078;51.542;7.314;2023-07-13T10:19:58;22.70;94.50
14006;DHT22;7078;51.542;7.314;2023-07-13T10:22:31;22.50;92.70
14006;DHT22;7078;51.542;7.314;2023-07-13T10:25:01;22.30;93.20
14006;DHT22;7078;51.542;7.314;2023-07-13T10:27:34;22.10;93.20
14006;DHT22;7078;51.542;7.314;2023-07-13T10:30:21;22.20;94.40
14006;DHT22;7078;51.542;7.314;2023-07-13T10:32:49;22.60;93.20
14006;DHT22;7078;51.542;7.314;2023-07-13T10:35:17;23.20;92.30
14006;DHT22;7078;51.542;7.314;2023-07-13T10:37:51;23.20;90.80
14006;DHT22;7078;51.542;7.314;2023-07-13T10:40:26;23.30;91.40
14006;DHT22;7078;51.542;7.314;2023-07-13T10:42:54;22.90;91.10
14006;DHT22;7078;51.542;7.314;2023-07-13T10:45:23;22.60;91.90
14006;DHT22;7078;51.542;7.314;2023-07-13T10:47:51;22.30;92.50
14006;DHT22;7078;51.542;7.314;2023-07-13T10:50:31;22.20;93.50
14006;DHT22;7078;51.542;7.314;2023-07-13T10:53:03;22.20;94.60
14006;DHT22;7078;51.542;7.314;2023-07-13T10:55:56;22.00;94.30
14006;DHT22;7078;51.542;7.314;2023-07-13T10:58:43;21.90;94.60
14006;DHT22;7078;51.542;7.314;2023-07-13T11:11:33;22.30;96.10
14006;DHT22;7078;51.542;7.314;2023-07-13T11:14:01;22.60;95.00
14006;DHT22;7078;51.542;7.314;2023-07-13T11:16:36;22.90;92.00
14006;DHT22;7078;51.542;7.314;2023-07-13T11:21:31;22.50;91.80
14006;DHT22;7078;51.542;7.314;2023-07-13T11:24:14;22.20;92.00
14006;DHT22;7078;51.542;7.314;2023-07-13T11:31:59;22.60;93.20
14006;DHT22;7078;51.542;7.314;2023-07-13T11:34:38;22.90;92.10
14006;DHT22;7078;51.542;7.314;2023-07-13T11:37:11;22.90;91.70
14006;DHT22;7078;51.542;7.314;2023-07-13T11:39:41;22.90;91.00
14006;DHT22;7078;51.542;7.314;2023-07-13T11:42:12;22.80;91.80
14006;DHT22;7078;51.542;7.314;2023-07-13T11:44:46;23.00;92.00
14006;DHT22;7078;51.542;7.314;2023-07-13T11:47:20;23.30;89.60
14006;DHT22;7078;51.542;7.314;2023-07-13T11:49:54;23.30;88.20
14006;DHT22;7078;51.542;7.314;2023-07-13T11:52:32;23.40;86.20
14006;DHT22;7078;51.542;7.314;2023-07-13T11:55:00;23.60;85.20
14006;DHT22;7078;51.542;7.314;2023-07-13T11:57:35;23.70;84.90
14006;DHT22;7078;51.542;7.314;2023-07-13T12:00:26;23.70;83.90
14006;DHT22;7078;51.542;7.314;2023-07-13T12:02:55;23.90;83.00
14006;DHT22;7078;51.542;7.314;2023-07-13T12:05:21;23.90;82.10
14006;DHT22;7078;51.542;7.314;2023-07-13T12:07:48;23.90;81.60
14006;DHT22;7078;51.542;7.314;2023-07-13T12:10:32;23.80;83.00
14006;DHT22;7078;51.542;7.314;2023-07-13T12:12:59;23.60;81.30
14006;DHT22;7078;51.542;7.314;2023-07-13T12:15:43;23.50;81.90
14006;DHT22;7078;51.542;7.314;2023-07-13T12:18:20;23.50;80.50
14006;DHT22;7078;51.542;7.314;2023-07-13T12:20:47;23.80;82.70
14006;DHT22;7078;51.542;7.314;2023-07-13T12:23:33;24.00;82.10
14006;DHT22;7078;51.542;7.314;2023-07-13T12:26:01;24.10;76.90
14006;DHT22;7078;51.542;7.314;2023-07-13T12:28:31;24.30;77.00
14006;DHT22;7078;51.542;7.314;2023-07-13T12:31:03;24.30;73.00
14006;DHT22;7078;51.542;7.314;2023-07-13T12:33:30;24.40;74.80
14006;DHT22;7078;51.542;7.314;2023-07-13T12:36:03;24.80;73.60
14006;DHT22;7078;51.542;7.314;2023-07-13T12:38:31;24.90;72.80
14006;DHT22;7078;51.542;7.314;2023-07-13T12:40:57;25.10;71.40
14006;DHT22;7078;51.542;7.314;2023-07-13T12:43:24;25.30;70.90
14006;DHT22;7078;51.542;7.314;2023-07-13T12:45:58;25.40;70.00
14006;DHT22;7078;51.542;7.314;2023-07-13T12:48:25;25.10;69.80
14006;DHT22;7078;51.542;7.314;2023-07-13T12:50:54;25.20;70.70
14006;DHT22;7078;51.542;7.314;2023-07-13T12:53:28;25.20;67.80
14006;DHT22;7078;51.542;7.314;2023-07-13T12:55:57;24.80;68.50
14006;DHT22;7078;51.542;7.314;2023-07-13T12:58:30;25.00;70.60
14006;DHT22;7078;51.542;7.314;2023-07-13T13:00:59;25.20;68.60
14006;DHT22;7078;51.542;7.314;2023-07-13T13:03:32;24.80;69.20
14006;DHT22;7078;51.542;7.314;2023-07-13T13:06:04;24.70;72.10
14006;DHT22;7078;51.542;7.314;2023-07-13T13:08:32;24.70;70.90
14006;DHT22;7078;51.542;7.314;2023-07-13T13:10:57;24.80;71.70
14006;DHT22;7078;51.542;7.314;2023-07-13T13:13:23;24.90;70.70
14006;DHT22;7078;51.542;7.314;2023-07-13T13:15:50;24.60;69.00
14006;DHT22;7078;51.542;7.314;2023-07-13T13:18:17;24.70;71.10
14006;DHT22;7078;51.542;7.314;2023-07-13T13:20:43;24.70;68.70
14006;DHT22;7078;51.542;7.314;2023-07-13T13:23:17;24.80;68.70
14006;DHT22;7078;51.542;7.314;2023-07-13T13:25:44;24.30;69.00
14006;DHT22;7078;51.542;7.314;2023-07-13T13:28:29;23.80;70.90
14006;DHT22;7078;51.542;7.314;2023-07-13T13:30:54;23.40;73.70
14006;DHT22;7078;51.542;7.314;2023-07-13T13:33:21;22.60;81.30
14006;DHT22;7078;51.542;7.314;2023-07-13T13:35:47;21.80;87.30
14006;DHT22;7078;51.542;7.314;2023-07-13T13:38:14;21.10;90.50
14006;DHT22;7078;51.542;7.314;2023-07-13T13:40:41;20.50;92.80
14006;DHT22;7078;51.542;7.314;2023-07-13T13:43:23;20.00;96.20
14006;DHT22;7078;51.542;7.314;2023-07-13T13:45:53;19.70;99.90
14006;DHT22;7078;51.542;7.314;2023-07-13T13:48:23;19.30;99.90
14006;DHT22;7078;51.542;7.314;2023-07-13T13:50:56;19.00;99.90
14006;DHT22;7078;51.542;7.314;2023-07-13T13:53:21;18.70;99.90
14006;DHT22;7078;51.542;7.314;2023-07-13T13:55:49;18.50;99.90
14006;DHT22;7078;51.542;7.314;2023-07-13T13:58:15;18.40;99.90
14006;DHT22;7078;51.542;7.314;2023-07-13T14:00:40;18.20;99.90
14006;DHT22;7078;51.542;7.314;2023-07-13T14:03:19;18.20;99.90
14006;DHT22;7078;51.542;7.314;2023-07-13T14:05:45;18.20;99.90
14006;DHT22;7078;51.542;7.314;2023-07-13T14:08:29;18.20;99.90
14006;DHT22;7078;51.542;7.314;2023-07-13T14:10:56;18.40;99.90
14006;DHT22;7078;51.542;7.314;2023-07-13T14:13:27;18.50;99.90
14006;DHT22;7078;51.542;7.314;2023-07-13T14:15:54;18.70;99.90
14006;DHT22;7078;51.542;7.314;2023-07-13T14:18:20;18.90;99.90
14006;DHT22;7078;51.542;7.314;2023-07-13T14:20:47;19.10;99.90
14006;DHT22;7078;51.542;7.314;2023-07-13T14:23:14;19.30;99.90
14006;DHT22;7078;51.542;7.314;2023-07-13T14:25:41;19.40;99.90
14006;DHT22;7078;51.542;7.314;2023-07-13T14:28:22;19.80;99.90
14006;DHT22;7078;51.542;7.314;2023-07-13T14:30:49;20.30;99.90
14006;DHT22;7078;51.542;7.314;2023-07-13T14:33:15;20.60;99.90
14006;DHT22;7078;51.542;7.314;2023-07-13T14:35:40;21.00;99.90
14006;DHT22;7078;51.542;7.314;2023-07-13T14:38:11;21.30;99.90
14006;DHT22;7078;51.542;7.314;2023-07-13T14:40:37;21.30;99.90
14006;DHT22;7078;51.542;7.314;2023-07-13T14:43:03;20.90;99.90
14006;DHT22;7078;51.542;7.314;2023-07-13T14:45:30;20.70;99.90
14006;DHT22;7078;51.542;7.314;2023-07-13T14:47:57;20.40;99.90
14006;DHT22;7078;51.542;7.314;2023-07-13T14:50:31;20.20;99.90
14006;DHT22;7078;51.542;7.314;2023-07-13T14:52:57;20.10;99.90
14006;DHT22;7078;51.542;7.314;2023-07-13T14:55:23;20.10;99.90
14006;DHT22;7078;51.542;7.314;2023-07-13T14:57:51;20.40;99.90
14006;DHT22;7078;51.542;7.314;2023-07-13T15:00:21;20.60;99.90
14006;DHT22;7078;51.542;7.314;2023-07-13T15:02:55;20.80;99.90
14006;DHT22;7078;51.542;7.314;2023-07-13T15:05:24;20.90;99.90
14006;DHT22;7078;51.542;7.314;2023-07-13T15:07:51;21.20;99.90
14006;DHT22;7078;51.542;7.314;2023-07-13T15:10:21;21.30;99.90
14006;DHT22;7078;51.542;7.314;2023-07-13T15:12:48;21.80;99.90
14006;DHT22;7078;51.542;7.314;2023-07-13T15:15:14;22.30;99.90
14006;DHT22;7078;51.542;7.314;2023-07-13T15:17:47;22.60;99.90
14006;DHT22;7078;51.542;7.314;2023-07-13T15:20:20;23.20;99.90
14006;DHT22;7078;51.542;7.314;2023-07-13T15:22:46;23.60;99.90
14006;DHT22;7078;51.542;7.314;2023-07-13T15:25:20;24.00;96.60
14006;DHT22;7078;51.542;7.314;2023-07-13T15:27:46;24.40;97.20
14006;DHT22;7078;51.542;7.314;2023-07-13T15:30:13;24.90;93.60
14006;DHT22;7078;51.542;7.314;2023-07-13T15:32:41;25.20;93.30
14006;DHT22;7078;51.542;7.314;2023-07-13T15:35:17;25.40;92.40
14006;DHT22;7078;51.542;7.314;2023-07-13T15:37:44;25.20;91.00
14006;DHT22;7078;51.542;7.314;2023-07-13T15:40:10;24.80;91.50
14006;DHT22;7078;51.542;7.314;2023-07-13T15:42:37;24.20;93.20
14006;DHT22;7078;51.542;7.314;2023-07-13T15:45:04;23.60;95.40
14006;DHT22;7078;51.542;7.314;2023-07-13T15:47:31;23.00;99.90
14006;DHT22;7078;51.542;7.314;2023-07-13T15:49:57;22.70;99.90
14006;DHT22;7078;51.542;7.314;2023-07-13T15:52:24;22.30;99.90
14006;DHT22;7078;51.542;7.314;2023-07-13T15:54:50;22.10;99.90
14006;DHT22;7078;51.542;7.314;2023-07-13T15:57:16;21.90;99.90
14006;DHT22;7078;51.542;7.314;2023-07-13T15:59:42;21.60;99.90
14006;DHT22;7078;51.542;7.314;2023-07-13T16:02:19;21.30;99.90
14006;DHT22;7078;51.542;7.314;2023-07-13T16:04:45;21.30;99.90
14006;DHT22;7078;51.542;7.314;2023-07-13T16:07:11;21.10;99.90
14006;DHT22;7078;51.542;7.314;2023-07-13T16:09:38;21.00;99.90
14006;DHT22;7078;51.542;7.314;2023-07-13T16:12:12;20.60;99.90
14006;DHT22;7078;51.542;7.314;2023-07-13T16:14:39;20.00;99.90
14006;DHT22;7078;51.542;7.314;2023-07-13T16:17:05;19.00;99.90
14006;DHT22;7078;51.542;7.314;2023-07-13T16:19:31;18.20;99.90
14006;DHT22;7078;51.542;7.314;2023-07-13T16:21:58;17.70;99.90
14006;DHT22;7078;51.542;7.314;2023-07-13T16:24:25;17.40;99.90